Time;durP1;ratioP1;P1;durP2;ratioP2;P2;SDS_P1;SDS_P2;PMS_P1;PMS_P2;Temp;Humidity;BMP_temperature;BMP_pressure;BME280_temperature;BME280_humidity;BME280_pressure;Samples;Min_cycle;Max_cycle;Signal;HPM_P1;HPM_P2
2021/07/15 00:00:51;;;;;;;0.50;0.50;;;;;;;11.53;53.81;97815.63;5073760;28;20036;-64
2021/07/15 00:03:25;;;;;;;0.40;0.40;;;;;;;11.56;54.24;97813.16;5074476;28;20058;-64
2021/07/15 00:05:53;;;;;;;0.22;0.22;;;;;;;11.61;53.83;97817.06;5073026;28;20394;-63
2021/07/15 00:08:24;;;;;;;0.47;0.47;;;;;;;11.71;53.71;97817.09;5074256;28;20052;-63
2021/07/15 00:11:07;;;;;;;0.22;0.22;;;;;;;12.30;52.50;97820.69;5074507;28;20433;-63
2021/07/15 00:13:33;;;;;;;0.20;0.20;;;;;;;13.58;49.94;97831.81;5074452;28;20028;-63
2021/07/15 00:16:00;;;;;;;1.05;0.77;;;;;;;15.04;47.01;97825.38;5074298;28;20028;-63
2021/07/15 00:18:29;;;;;;;0.30;0.30;;;;;;;16.41;44.36;97827.00;5073971;28;20029;-61
2021/07/15 00:20:57;;;;;;;0.30;0.30;;;;;;;17.67;42.36;97834.00;5073974;28;20392;-63
2021/07/15 00:23:23;;;;;;;0.25;0.25;;;;;;;18.81;40.84;97841.69;5073942;28;20040;-62
2021/07/15 00:25:49;;;;;;;2.67;0.38;;;;;;;19.81;39.62;97828.72;5074077;28;20036;-65
2021/07/15 00:28:16;;;;;;;2.08;0.77;;;;;;;20.74;38.54;97824.13;5073405;28;20052;-65
2021/07/15 00:30:42;;;;;;;0.20;0.20;;;;;;;21.62;37.75;97812.97;5073838;28;20024;-64
2021/07/15 00:33:09;;;;;;;0.45;0.22;;;;;;;22.50;36.71;97814.28;5073967;28;20115;-65
2021/07/15 00:35:35;;;;;;;0.28;0.28;;;;;;;23.39;35.92;97815.25;5073790;28;20028;-64
2021/07/15 00:38:02;;;;;;;2.30;0.20;;;;;;;24.21;35.16;97810.94;5073485;28;20029;-62
2021/07/15 00:40:28;;;;;;;0.38;0.38;;;;;;;25.06;34.44;97814.00;5073980;28;20399;-61
2021/07/15 00:42:54;;;;;;;0.10;0.10;;;;;;;25.80;33.84;97811.72;5073500;28;20029;-62
2021/07/15 00:45:19;;;;;;;0.10;0.10;;;;;;;26.49;33.30;97813.50;5073669;28;20090;-63
2021/07/15 00:47:46;;;;;;;0.10;0.10;;;;;;;27.07;33.32;97810.81;5073500;28;20032;-62
2021/07/15 00:50:13;;;;;;;0.25;0.20;;;;;;;27.57;32.71;97808.25;5073422;28;20405;-61
2021/07/15 00:52:40;;;;;;;0.30;0.30;;;;;;;28.04;32.51;97808.34;5073508;28;20574;-62
2021/07/15 00:55:09;;;;;;;0.52;0.43;;;;;;;28.44;32.41;97802.16;5073229;28;20032;-63
2021/07/15 00:57:35;;;;;;;0.20;0.20;;;;;;;28.81;32.46;97803.56;5072757;28;20035;-63
2021/07/15 01:00:03;;;;;;;0.13;0.13;;;;;;;29.22;31.96;97794.47;5073090;28;20115;-62
2021/07/15 01:02:29;;;;;;;0.30;0.30;;;;;;;29.61;31.67;97811.91;5073129;28;20040;-61
2021/07/15 01:04:55;;;;;;;0.32;0.32;;;;;;;29.82;31.54;97808.50;5073264;28;20402;-62
2021/07/15 01:07:21;;;;;;;1.30;0.60;;;;;;;29.77;31.84;97803.19;5072904;28;20052;-61
2021/07/15 01:09:46;;;;;;;0.20;0.20;;;;;;;29.60;32.40;97798.16;5073067;28;20032;-61
2021/07/15 01:12:44;;;;;;;0.40;0.40;;;;;;;30.00;32.17;97803.03;5071525;28;20016;-61
2021/07/15 01:15:16;;;;;;;1.05;0.90;;;;;;;30.68;31.35;97788.66;5069995;28;20110;-63
2021/07/15 01:18:08;;;;;;;0.88;0.35;;;;;;;31.33;30.66;97799.56;5073322;28;20056;-62
2021/07/15 01:20:52;;;;;;;0.20;0.20;;;;;;;32.06;29.91;97807.09;5072837;28;20039;-62
2021/07/15 01:23:28;;;;;;;0.43;0.43;;;;;;;32.44;29.56;97807.56;5072842;28;20028;-63
2021/07/15 01:26:09;;;;;;;0.40;0.40;;;;;;;32.70;29.31;97823.41;5072916;28;20032;-62
2021/07/15 01:28:41;;;;;;;3.13;0.30;;;;;;;33.04;29.27;97794.50;5072153;28;20032;-62
2021/07/15 01:31:08;;;;;;;0.25;0.25;;;;;;;33.34;28.90;97798.88;5072675;28;20441;-61
2021/07/15 01:33:37;;;;;;;0.30;0.30;;;;;;;33.64;28.95;97795.50;5072778;28;20490;-60
2021/07/15 01:36:18;;;;;;;0.10;0.10;;;;;;;34.07;28.16;97793.63;5072578;28;20505;-61
2021/07/15 01:38:51;;;;;;;0.20;0.20;;;;;;;34.25;28.18;97793.50;5071439;28;20032;-63
2021/07/15 01:41:41;;;;;;;0.20;0.20;;;;;;;34.57;28.02;97798.94;5072472;28;20028;-63
2021/07/15 01:44:12;;;;;;;0.10;0.10;;;;;;;34.97;27.42;97788.00;5065021;28;20179;-63
2021/07/15 01:46:40;;;;;;;0.20;0.20;;;;;;;35.42;27.25;97795.66;5072450;28;20028;-61
2021/07/15 01:49:07;;;;;;;0.10;0.10;;;;;;;35.84;26.89;97799.19;5072543;28;20070;-65
2021/07/15 01:51:34;;;;;;;0.20;0.20;;;;;;;36.43;26.22;97788.53;5071030;28;20035;-61
2021/07/15 01:54:00;;;;;;;0.17;0.17;;;;;;;36.88;25.80;97795.91;5072383;28;20029;-61
2021/07/15 01:56:27;;;;;;;0.10;0.10;;;;;;;37.04;25.63;97787.44;5070484;28;20478;-60
2021/07/15 01:58:55;;;;;;;0.03;0.03;;;;;;;37.38;25.39;97779.84;5072646;28;20021;-61
2021/07/15 02:01:23;;;;;;;0.10;0.10;;;;;;;37.85;24.90;97771.88;5075703;28;20054;-60
2021/07/15 02:03:51;;;;;;;0.20;0.20;;;;;;;38.36;24.73;97776.41;5073309;28;20032;-61
2021/07/15 02:06:19;;;;;;;0.20;0.20;;;;;;;38.79;24.19;97780.25;5072938;28;20029;-59
2021/07/15 02:08:50;;;;;;;0.10;0.10;;;;;;;39.17;24.09;97773.91;5072193;28;20140;-60
2021/07/15 02:11:16;;;;;;;0.32;0.32;;;;;;;39.76;23.42;97789.81;5072143;28;20112;-62
2021/07/15 02:13:45;;;;;;;0.20;0.20;;;;;;;40.47;22.90;97768.66;5072383;28;20048;-60
2021/07/15 02:16:12;;;;;;;0.10;0.10;;;;;;;40.87;22.83;97778.00;5072082;28;20040;-62
2021/07/15 02:18:40;;;;;;;0.30;0.30;;;;;;;41.13;22.68;97778.75;5071773;28;20398;-61
2021/07/15 02:21:07;;;;;;;0.10;0.10;;;;;;;41.24;22.89;97784.09;5072075;28;20032;-62
2021/07/15 02:23:33;;;;;;;0.20;0.20;;;;;;;41.38;22.64;97792.25;5074883;28;20032;-63
2021/07/15 02:26:00;;;;;;;0.15;0.15;;;;;;;41.38;22.52;97779.91;5076446;28;20471;-64
2021/07/15 02:28:27;;;;;;;0.25;0.25;;;;;;;41.58;22.90;97779.56;5076076;28;20043;-63
2021/07/15 02:31:00;;;;;;;0.10;0.10;;;;;;;41.56;22.62;97782.13;5076509;28;20033;-63
2021/07/15 02:33:28;;;;;;;0.90;0.47;;;;;;;41.59;22.43;97770.44;5076327;28;20036;-61
2021/07/15 02:36:00;;;;;;;2.53;1.10;;;;;;;41.97;22.44;97780.91;5076016;28;20037;-62
2021/07/15 02:38:28;;;;;;;0.20;0.20;;;;;;;42.24;21.89;97772.88;5075924;28;20024;-62
2021/07/15 02:40:54;;;;;;;3.20;0.50;;;;;;;42.39;22.17;97785.44;5076681;28;20033;-62
2021/07/15 02:43:20;;;;;;;0.43;0.40;;;;;;;42.51;22.05;97787.38;5076274;28;20575;-63
2021/07/15 02:45:46;;;;;;;0.20;0.20;;;;;;;42.59;21.67;97778.41;5075740;28;20509;-62
2021/07/15 02:48:18;;;;;;;0.30;0.30;;;;;;;42.60;21.44;97774.28;5075907;28;20032;-62
2021/07/15 02:50:44;;;;;;;0.22;0.22;;;;;;;42.59;21.59;97781.31;5075883;28;20692;-62
2021/07/15 02:53:10;;;;;;;0.20;0.20;;;;;;;42.78;21.53;97782.97;5075783;28;20158;-63
2021/07/15 02:55:36;;;;;;;0.20;0.20;;;;;;;43.07;21.28;97775.97;5075999;28;20490;-63
2021/07/15 02:58:22;;;;;;;0.10;0.10;;;;;;;43.25;20.74;97778.03;5075284;28;20117;-62
2021/07/15 03:00:59;;;;;;;0.20;0.20;;;;;;;43.38;20.99;97777.84;5075501;28;20163;-62
2021/07/15 03:03:54;;;;;;;0.10;0.10;;;;;;;43.49;20.94;97775.28;5075705;28;20398;-63
2021/07/15 03:06:34;;;;;;;0.25;0.20;;;;;;;43.53;20.65;97778.03;5075490;28;20032;-63
2021/07/15 03:09:16;;;;;;;0.43;0.43;;;;;;;43.72;20.57;97765.13;5075191;28;20056;-63
2021/07/15 03:11:51;;;;;;;0.20;0.20;;;;;;;43.93;20.08;97769.06;5073905;28;20037;-62
2021/07/15 03:14:17;;;;;;;0.32;0.32;;;;;;;44.30;19.75;97778.91;5075141;28;20024;-63
2021/07/15 03:16:45;;;;;;;0.20;0.20;;;;;;;44.46;20.00;97761.13;5075277;28;20082;-61
2021/07/15 03:19:14;;;;;;;1.02;0.28;;;;;;;44.47;19.74;97774.31;5075460;28;20025;-62
2021/07/15 03:21:44;;;;;;;2.13;0.47;;;;;;;44.50;19.57;97761.75;5074949;28;20048;-63
2021/07/15 03:24:12;;;;;;;0.32;0.32;;;;;;;44.26;19.55;97764.63;5074858;28;20461;-62
2021/07/15 03:26:40;;;;;;;0.10;0.10;;;;;;;43.74;19.96;97767.50;5074445;28;20028;-62
2021/07/15 03:29:07;;;;;;;0.25;0.22;;;;;;;43.26;20.11;97767.25;5075071;28;20052;-63
2021/07/15 03:31:34;;;;;;;0.47;0.47;;;;;;;42.87;20.33;97768.53;5075007;28;20036;-64
2021/07/15 03:34:01;;;;;;;0.30;0.17;;;;;;;42.87;19.95;97767.72;5074511;28;20031;-63
2021/07/15 03:36:28;;;;;;;0.20;0.20;;;;;;;42.86;20.35;97766.94;5073585;28;20040;-62
2021/07/15 03:38:55;;;;;;;0.20;0.20;;;;;;;43.04;20.14;97760.38;5074729;28;20036;-62
2021/07/15 03:41:22;;;;;;;0.15;0.15;;;;;;;42.97;19.96;97759.88;5074515;28;20585;-62
2021/07/15 03:43:49;;;;;;;0.10;0.10;;;;;;;42.51;20.03;97758.53;5075165;28;20509;-63
2021/07/15 03:46:16;;;;;;;0.10;0.10;;;;;;;42.56;19.86;97748.44;5074967;28;20039;-61
2021/07/15 03:48:43;;;;;;;0.20;0.20;;;;;;;42.51;19.67;97749.88;5074894;28;20402;-61
2021/07/15 03:51:10;;;;;;;0.20;0.20;;;;;;;42.24;19.95;97744.81;5074592;28;20111;-63
2021/07/15 03:53:39;;;;;;;0.10;0.10;;;;;;;42.30;19.51;97742.94;5073410;28;20462;-61
2021/07/15 03:56:08;;;;;;;0.10;0.10;;;;;;;42.14;19.58;97740.28;5074943;28;20077;-62
2021/07/15 03:58:41;;;;;;;0.80;0.50;;;;;;;41.90;19.75;97748.69;5074327;28;20032;-61
2021/07/15 04:01:08;;;;;;;0.10;0.10;;;;;;;41.85;19.44;97735.72;5074463;28;20020;-61
2021/07/15 04:03:35;;;;;;;0.10;0.10;;;;;;;42.28;18.95;97750.47;5074589;28;20052;-62
2021/07/15 04:06:03;;;;;;;0.20;0.20;;;;;;;42.43;18.79;97745.69;5076518;28;20080;-63
2021/07/15 04:08:32;;;;;;;0.10;0.10;;;;;;;42.46;18.89;97736.06;5082598;28;20061;-62
2021/07/15 04:11:02;;;;;;;0.10;0.10;;;;;;;42.21;18.98;97739.22;5074410;28;20041;-63
2021/07/15 04:13:28;;;;;;;0.10;0.10;;;;;;;42.12;19.13;97749.41;5074481;28;20035;-62
2021/07/15 04:16:09;;;;;;;0.20;0.20;;;;;;;42.15;19.01;97731.16;5074100;28;20055;-63
2021/07/15 04:19:14;;;;;;;1.13;0.55;;;;;;;42.05;19.03;97729.50;5074169;28;20037;-62
2021/07/15 04:22:20;;;;;;;0.10;0.10;;;;;;;41.19;19.67;97735.75;5072213;28;20518;-62
2021/07/15 04:25:25;;;;;;;0.30;0.20;;;;;;;41.65;19.07;97738.94;5074027;28;20517;-61
2021/07/15 04:28:31;;;;;;;0.30;0.30;;;;;;;41.89;18.53;97739.25;5071952;28;20526;-63
2021/07/15 04:31:34;;;;;;;0.10;0.10;;;;;;;41.90;18.87;97725.63;5074084;28;20036;-62
2021/07/15 04:41:26;;;;;;;0.10;0.10;;;;;;;41.35;19.33;97721.16;5066916;28;20043;-62
2021/07/15 04:47:19;;;;;;;0.20;0.20;;;;;;;40.50;19.43;97720.91;5071709;28;20044;-63
2021/07/15 04:49:45;;;;;;;0.30;0.30;;;;;;;40.72;19.24;97732.47;5073477;28;20177;-61
2021/07/15 04:52:12;;;;;;;0.10;0.10;;;;;;;41.25;18.74;97723.16;5073671;28;20471;-62
2021/07/15 04:54:39;;;;;;;0.10;0.10;;;;;;;40.92;18.97;97729.31;5073706;28;20463;-61
2021/07/15 04:57:09;;;;;;;0.10;0.10;;;;;;;41.19;18.23;97735.75;5072503;28;20040;-61
2021/07/15 04:59:38;;;;;;;0.10;0.10;;;;;;;41.08;18.47;97730.38;5070285;28;20032;-61
2021/07/15 05:02:04;;;;;;;0.15;0.15;;;;;;;40.94;18.54;97737.50;5072891;28;20044;-62
2021/07/15 05:04:30;;;;;;;0.10;0.10;;;;;;;40.99;18.62;97734.00;5071185;28;20029;-62
2021/07/15 05:06:56;;;;;;;0.10;0.10;;;;;;;40.86;18.56;97736.09;5072782;28;20491;-65
2021/07/15 05:09:22;;;;;;;0.20;0.20;;;;;;;40.41;18.82;97718.72;5071684;28;20113;-64
2021/07/15 05:11:49;;;;;;;0.10;0.10;;;;;;;40.08;18.88;97716.16;5072857;28;20033;-62
2021/07/15 05:14:15;;;;;;;0.10;0.10;;;;;;;40.07;18.87;97720.28;5072935;28;20399;-62
2021/07/15 05:16:41;;;;;;;0.22;0.22;;;;;;;40.11;18.75;97718.09;5072813;28;20032;-64
2021/07/15 05:19:06;;;;;;;0.10;0.10;;;;;;;40.24;18.52;97715.22;5073140;28;20058;-62
2021/07/15 05:21:32;;;;;;;0.10;0.10;;;;;;;40.18;18.44;97719.13;5072833;28;21065;-62
2021/07/15 05:23:58;;;;;;;0.28;0.28;;;;;;;40.24;18.46;97708.63;5073214;28;20040;-64
2021/07/15 05:26:24;;;;;;;0.17;0.17;;;;;;;39.55;19.04;97704.28;5071992;28;20036;-63
2021/07/15 05:28:50;;;;;;;0.30;0.17;;;;;;;40.05;18.41;97713.38;5072356;28;20036;-62
2021/07/15 05:31:17;;;;;;;0.20;0.20;;;;;;;40.47;17.94;97708.25;5072798;28;20384;-62
2021/07/15 05:33:43;;;;;;;0.15;0.15;;;;;;;40.77;17.80;97711.75;5072675;28;20040;-63
2021/07/15 05:36:10;;;;;;;0.10;0.10;;;;;;;40.57;17.52;97705.50;5072649;28;20029;-62
2021/07/15 05:38:42;;;;;;;0.30;0.20;;;;;;;39.66;18.43;97701.88;5072691;28;20473;-63
2021/07/15 05:41:09;;;;;;;0.20;0.20;;;;;;;39.44;18.67;97695.97;5072518;28;20483;-62
2021/07/15 05:43:35;;;;;;;0.20;0.20;;;;;;;39.92;18.28;97694.06;5072748;28;20043;-62
2021/07/15 05:46:02;;;;;;;0.10;0.10;;;;;;;40.67;17.62;97689.91;5072650;28;20158;-62
2021/07/15 05:48:28;;;;;;;0.32;0.32;;;;;;;40.75;17.28;97697.00;5072375;28;20409;-63
2021/07/15 05:50:53;;;;;;;0.10;0.10;;;;;;;40.15;17.74;97697.06;5072348;28;20107;-64
2021/07/15 05:53:19;;;;;;;0.08;0.08;;;;;;;37.95;19.73;97694.69;5072481;28;20027;-63
2021/07/15 05:55:45;;;;;;;0.20;0.20;;;;;;;34.72;22.09;97694.16;5071194;28;20028;-64
2021/07/15 05:58:11;;;;;;;0.10;0.10;;;;;;;31.54;25.40;97688.19;5071936;28;20032;-64
2021/07/15 06:00:36;;;;;;;0.98;0.52;;;;;;;29.51;26.96;97691.00;5071102;28;20025;-64
2021/07/15 06:03:02;;;;;;;0.00;0.00;;;;;;;28.08;28.26;97674.59;5073341;28;20032;-63
2021/07/15 06:05:30;;;;;;;0.80;0.17;;;;;;;27.34;28.66;97694.63;5072610;28;20029;-64
2021/07/15 06:07:57;;;;;;;0.20;0.20;;;;;;;26.64;28.61;97671.06;5072102;28;20052;-64
2021/07/15 06:10:24;;;;;;;0.20;0.20;;;;;;;26.14;28.69;97673.59;5072266;28;20043;-62
2021/07/15 06:12:50;;;;;;;0.05;0.05;;;;;;;25.79;28.37;97666.69;5068801;28;20037;-62
2021/07/15 06:15:16;;;;;;;0.10;0.10;;;;;;;25.27;28.94;97682.59;5065005;28;20393;-63
2021/07/15 06:17:42;;;;;;;0.98;0.50;;;;;;;24.61;28.90;97659.50;5063736;28;20028;-64
2021/07/15 06:20:12;;;;;;;0.10;0.10;;;;;;;24.06;29.53;97659.03;5056046;28;20033;-61
2021/07/15 06:22:39;;;;;;;0.00;0.00;;;;;;;23.77;29.53;97662.88;5055761;28;20060;-65
2021/07/15 06:25:10;;;;;;;0.52;0.30;;;;;;;23.62;29.02;97658.78;5053459;28;20040;-62
2021/07/15 06:27:38;;;;;;;0.10;0.10;;;;;;;23.37;28.99;97667.16;5043327;28;20403;-64
2021/07/15 06:30:08;;;;;;;0.10;0.10;;;;;;;23.15;29.10;97657.19;5040124;28;20036;-63
2021/07/15 06:32:34;;;;;;;0.70;0.32;;;;;;;22.90;29.24;97661.88;5042447;28;20410;-60
2021/07/15 06:35:01;;;;;;;0.20;0.20;;;;;;;22.76;29.31;97659.34;5056139;28;20021;-60
2021/07/15 06:37:33;;;;;;;0.10;0.10;;;;;;;22.67;29.30;97661.44;5052736;28;20505;-62
2021/07/15 06:39:59;;;;;;;0.20;0.20;;;;;;;22.59;29.08;97653.94;5053754;28;20044;-63
2021/07/15 06:42:25;;;;;;;0.13;0.13;;;;;;;22.66;28.83;97654.19;5057675;28;20044;-62
2021/07/15 06:44:52;;;;;;;0.10;0.10;;;;;;;22.62;28.97;97648.47;5054696;28;20035;-62
2021/07/15 06:47:17;;;;;;;0.13;0.13;;;;;;;22.60;28.86;97655.56;5050294;28;20091;-63
2021/07/15 06:49:43;;;;;;;0.20;0.20;;;;;;;22.65;28.45;97641.38;5049529;28;20029;-64
2021/07/15 06:52:09;;;;;;;0.20;0.20;;;;;;;22.65;28.34;97642.19;5049565;28;20453;-62
2021/07/15 06:54:35;;;;;;;0.30;0.30;;;;;;;22.52;28.41;97649.69;5049341;28;20521;-61
2021/07/15 06:57:01;;;;;;;0.30;0.20;;;;;;;22.42;28.63;97649.31;5054978;28;20064;-63
2021/07/15 06:59:26;;;;;;;2.55;0.50;;;;;;;22.28;28.82;97643.97;5056960;28;20031;-62
2021/07/15 07:01:52;;;;;;;0.10;0.10;;;;;;;22.12;28.88;97641.78;5050662;28;20487;-62
2021/07/15 07:04:18;;;;;;;0.10;0.10;;;;;;;22.03;29.03;97638.22;5056005;28;20037;-63
2021/07/15 07:06:44;;;;;;;0.10;0.10;;;;;;;22.14;29.03;97644.22;5051687;28;20029;-65
2021/07/15 07:09:10;;;;;;;0.10;0.10;;;;;;;22.21;28.83;97641.69;5052016;28;20064;-62
2021/07/15 07:11:36;;;;;;;0.20;0.20;;;;;;;22.25;28.77;97639.06;5040930;28;20497;-64
2021/07/15 07:14:01;;;;;;;0.10;0.10;;;;;;;22.28;28.79;97643.97;5040612;28;20478;-61
2021/07/15 07:16:28;;;;;;;0.10;0.10;;;;;;;22.18;28.78;97636.78;5054852;28;20044;-63
2021/07/15 07:18:54;;;;;;;0.10;0.10;;;;;;;22.12;29.03;97646.56;5040045;28;20037;-62
2021/07/15 07:21:19;;;;;;;0.10;0.10;;;;;;;22.05;28.82;97644.28;5055532;28;20044;-61
2021/07/15 07:23:45;;;;;;;1.02;0.52;;;;;;;21.92;29.08;97648.97;5054989;28;20033;-64
2021/07/15 07:26:11;;;;;;;0.15;0.15;;;;;;;21.74;29.44;97634.28;5054572;28;20475;-61
2021/07/15 07:28:37;;;;;;;0.10;0.10;;;;;;;21.62;29.60;97626.63;5055043;28;20554;-62
2021/07/15 07:31:03;;;;;;;0.13;0.13;;;;;;;21.73;29.27;97618.69;5054238;28;20140;-64
2021/07/15 07:33:29;;;;;;;0.10;0.10;;;;;;;21.84;29.19;97617.13;5051244;28;20033;-64
2021/07/15 07:35:55;;;;;;;0.30;0.30;;;;;;;21.92;29.05;97621.00;5054162;28;20091;-64
2021/07/15 07:38:21;;;;;;;0.60;0.30;;;;;;;21.85;29.12;97610.38;5051377;28;20037;-63
2021/07/15 07:40:47;;;;;;;0.10;0.10;;;;;;;21.87;29.34;97602.47;5058116;28;20077;-65
2021/07/15 07:43:12;;;;;;;1.65;0.50;;;;;;;21.86;29.42;97612.03;5060271;28;20056;-66
2021/07/15 07:45:38;;;;;;;3.20;0.30;;;;;;;21.90;29.36;97606.56;5054460;28;20123;-65
2021/07/15 07:48:04;;;;;;;0.10;0.10;;;;;;;21.99;29.41;97606.50;5054988;28;20051;-61
2021/07/15 07:50:30;;;;;;;0.30;0.30;;;;;;;22.07;29.25;97602.00;5056095;28;20464;-64
2021/07/15 07:52:57;;;;;;;0.13;0.13;;;;;;;22.12;29.14;97593.44;5055166;28;20445;-61
2021/07/15 07:55:24;;;;;;;0.28;0.28;;;;;;;22.17;29.20;97596.00;5053975;28;20033;-62
2021/07/15 07:57:51;;;;;;;0.10;0.10;;;;;;;22.11;29.46;97592.59;5056550;28;20025;-61
2021/07/15 08:00:18;;;;;;;0.75;0.75;;;;;;;22.11;29.20;97589.81;5051452;28;20039;-61
2021/07/15 08:02:49;;;;;;;0.10;0.10;;;;;;;22.06;29.43;97598.41;5054868;28;20470;-63
2021/07/15 08:05:18;;;;;;;0.43;0.17;;;;;;;21.97;29.47;97590.09;5053787;28;20044;-64
2021/07/15 08:07:45;;;;;;;0.22;0.22;;;;;;;21.90;29.84;97584.22;5051665;28;20061;-63
2021/07/15 08:10:11;;;;;;;0.10;0.10;;;;;;;21.93;29.65;97589.13;5051818;28;20090;-64
2021/07/15 08:12:38;;;;;;;0.10;0.10;;;;;;;22.01;29.82;97568.69;5057046;28;20122;-63
2021/07/15 08:15:05;;;;;;;0.32;0.32;;;;;;;22.12;29.38;97580.28;5070544;28;20043;-62
2021/07/15 08:17:31;;;;;;;0.10;0.10;;;;;;;22.25;29.38;97580.34;5072673;28;20082;-63
2021/07/15 08:19:57;;;;;;;0.10;0.10;;;;;;;22.33;29.08;97580.28;5057298;28;20430;-65
2021/07/15 08:22:23;;;;;;;0.10;0.10;;;;;;;22.47;29.08;97576.41;5058099;28;20037;-62
2021/07/15 08:24:49;;;;;;;0.20;0.20;;;;;;;22.54;29.31;97580.25;5057964;28;20033;-63
2021/07/15 08:27:14;;;;;;;0.20;0.10;;;;;;;22.49;29.14;97566.47;5054082;28;20025;-63
2021/07/15 08:29:40;;;;;;;0.00;0.00;;;;;;;22.42;29.32;97562.63;5051941;28;20421;-63
2021/07/15 08:32:07;;;;;;;0.43;0.43;;;;;;;22.39;29.64;97559.34;5051424;28;20036;-64
2021/07/15 08:35:12;;;;;;;0.10;0.10;;;;;;;22.35;29.43;97555.59;5057728;28;20469;-63
2021/07/15 08:41:00;;;;;;;0.00;0.00;;;;;;;22.35;29.55;97555.59;5057054;28;20478;-65
2021/07/15 08:43:29;;;;;;;0.20;0.20;;;;;;;22.30;29.45;97552.97;5044069;28;20052;-65
2021/07/15 08:45:59;;;;;;;0.43;0.10;;;;;;;22.23;29.87;97552.69;5059077;28;20487;-63
2021/07/15 08:48:26;;;;;;;0.10;0.10;;;;;;;22.21;29.81;97541.06;5034359;28;20505;-64
2021/07/15 08:50:53;;;;;;;0.10;0.10;;;;;;;22.35;29.70;97541.63;5034733;28;20483;-64
2021/07/15 08:53:21;;;;;;;0.20;0.20;;;;;;;22.53;29.38;97544.25;5042037;28;20056;-62
2021/07/15 08:58:17;;;;;;;0.10;0.10;;;;;;;22.69;29.19;97550.00;5068905;28;20402;-64
2021/07/15 09:00:45;;;;;;;0.10;0.10;;;;;;;22.64;29.23;97545.41;5056970;28;20032;-63
2021/07/15 09:03:12;;;;;;;0.10;0.10;;;;;;;22.59;29.41;97544.84;5064404;28;20040;-63
2021/07/15 09:05:38;;;;;;;0.65;0.32;;;;;;;22.61;29.50;97543.31;5057228;28;20047;-64
2021/07/15 09:08:05;;;;;;;0.13;0.13;;;;;;;22.69;29.42;97548.00;5052011;28;20057;-63
2021/07/15 09:10:31;;;;;;;0.20;0.20;;;;;;;22.85;29.33;97544.53;5067400;28;20040;-66
2021/07/15 09:12:58;;;;;;;0.32;0.32;;;;;;;22.89;29.23;97540.72;5071000;28;20105;-63
2021/07/15 09:15:25;;;;;;;0.10;0.10;;;;;;;22.87;29.12;97553.41;5063864;28;20477;-64
2021/07/15 09:17:51;;;;;;;0.30;0.30;;;;;;;22.87;29.33;97553.41;5070992;28;20180;-63
2021/07/15 09:20:22;;;;;;;0.20;0.20;;;;;;;22.92;29.07;97528.00;5072373;28;20028;-62
2021/07/15 09:23:00;;;;;;;0.10;0.10;;;;;;;22.94;29.13;97545.28;5073138;28;20519;-65
2021/07/15 09:25:37;;;;;;;0.00;0.00;;;;;;;22.77;29.50;97531.47;5069023;28;20087;-65
2021/07/15 09:28:04;;;;;;;0.10;0.10;;;;;;;22.69;29.67;97542.41;5063471;28;20051;-64
2021/07/15 09:31:09;;;;;;;0.38;0.38;;;;;;;22.75;29.53;97545.81;5063455;28;20483;-64
2021/07/15 09:37:32;;;;;;;0.20;0.20;;;;;;;22.82;29.29;97520.03;5052189;28;20082;-62
2021/07/15 09:39:58;;;;;;;0.28;0.28;;;;;;;22.80;29.41;97525.19;5041519;28;20118;-65
2021/07/15 09:42:25;;;;;;;0.10;0.10;;;;;;;22.82;29.16;97534.03;5055811;28;20086;-62
2021/07/15 09:44:52;;;;;;;0.10;0.10;;;;;;;22.80;29.41;97516.78;5049904;28;20124;-65
2021/07/15 09:47:50;;;;;;;0.20;0.10;;;;;;;22.84;29.40;97524.13;5049698;28;20068;-64
2021/07/15 09:50:16;;;;;;;0.30;0.30;;;;;;;22.83;29.57;97524.50;5027913;28;20064;-64
2021/07/15 09:52:43;;;;;;;0.30;0.30;;;;;;;22.86;29.45;97521.81;5050467;28;20459;-66
2021/07/15 09:55:23;;;;;;;0.10;0.10;;;;;;;22.90;29.10;97505.16;5032957;28;20059;-64
2021/07/15 09:58:02;;;;;;;0.10;0.10;;;;;;;23.01;29.48;97503.53;5050099;28;20036;-66
2021/07/15 10:00:36;;;;;;;0.10;0.10;;;;;;;23.19;29.13;97503.31;5052702;28;20404;-66
2021/07/15 10:03:04;;;;;;;0.10;0.10;;;;;;;23.35;28.93;97507.06;5052361;28;20040;-65
2021/07/15 10:05:29;;;;;;;0.90;0.47;;;;;;;23.35;28.97;97501.44;5051789;28;20033;-65
2021/07/15 10:08:09;;;;;;;0.20;0.20;;;;;;;23.26;29.02;97486.75;5051632;28;20419;-63
2021/07/15 10:10:37;;;;;;;0.20;0.20;;;;;;;23.23;29.24;97487.44;5052283;28;20033;-66
2021/07/15 10:13:12;;;;;;;0.10;0.10;;;;;;;23.21;29.35;97495.38;5052370;28;20094;-64
2021/07/15 10:15:38;;;;;;;0.20;0.20;;;;;;;23.11;29.21;97488.25;5034395;28;20551;-65
2021/07/15 10:18:04;;;;;;;0.10;0.10;;;;;;;22.98;29.56;97481.84;5051922;28;20033;-68
2021/07/15 10:20:29;;;;;;;0.10;0.10;;;;;;;22.98;29.58;97476.25;5034558;28;20039;-67
2021/07/15 10:22:56;;;;;;;0.30;0.30;;;;;;;22.93;29.75;97473.66;5052100;28;20037;-63
2021/07/15 10:25:22;;;;;;;0.30;0.30;;;;;;;23.00;29.64;97470.28;5052283;28;20041;-63
2021/07/15 10:27:48;;;;;;;0.20;0.20;;;;;;;23.09;29.58;97455.00;5051775;28;20033;-63
2021/07/15 10:30:16;;;;;;;0.10;0.10;;;;;;;23.17;29.25;97463.66;5062911;28;20075;-64
2021/07/15 10:32:46;;;;;;;0.10;0.10;;;;;;;23.11;29.58;97473.47;5064647;28;20040;-65
2021/07/15 10:35:12;;;;;;;0.52;0.25;;;;;;;23.03;29.98;97466.78;5052061;28;20471;-62
2021/07/15 10:37:41;;;;;;;0.28;0.13;;;;;;;22.96;30.02;97464.56;5052296;28;20029;-64
2021/07/15 10:40:16;;;;;;;0.00;0.00;;;;;;;22.88;29.97;97465.50;5051996;28;20620;-64
2021/07/15 10:42:42;;;;;;;0.10;0.10;;;;;;;22.87;30.18;97466.66;5052030;28;20037;-63
2021/07/15 10:45:11;;;;;;;0.25;0.25;;;;;;;22.84;29.86;97470.16;5055353;28;20036;-64
2021/07/15 10:47:38;;;;;;;0.10;0.10;;;;;;;22.87;30.08;97472.25;5056017;28;20375;-62
2021/07/15 10:50:06;;;;;;;0.10;0.10;;;;;;;22.95;30.28;97457.31;5055520;28;20522;-64
2021/07/15 10:52:34;;;;;;;0.10;0.10;;;;;;;22.90;30.15;97463.97;5055714;28;20041;-64
2021/07/15 10:55:01;;;;;;;0.03;0.03;;;;;;;22.91;30.22;97467.59;5056022;28;20090;-66
2021/07/15 10:57:27;;;;;;;0.15;0.15;;;;;;;22.93;30.33;97462.47;5055553;28;20083;-61
2021/07/15 10:59:53;;;;;;;0.20;0.20;;;;;;;22.97;29.90;97462.56;5055294;28;20037;-61
2021/07/15 11:02:24;;;;;;;0.10;0.10;;;;;;;23.12;29.77;97459.09;5055791;28;20481;-63
2021/07/15 11:04:52;;;;;;;0.00;0.00;;;;;;;23.25;29.55;97457.13;5055980;28;20025;-64
2021/07/15 11:07:25;;;;;;;0.10;0.10;;;;;;;23.40;29.59;97456.38;5055620;28;20036;-65
2021/07/15 11:09:52;;;;;;;0.15;0.15;;;;;;;23.32;29.82;97451.75;5055459;28;20033;-62
2021/07/15 11:12:30;;;;;;;0.10;0.10;;;;;;;23.25;29.92;97446.72;5055556;28;20502;-63
2021/07/15 11:15:12;;;;;;;0.10;0.10;;;;;;;23.29;30.19;97455.22;5055293;28;20490;-64
2021/07/15 11:17:52;;;;;;;0.10;0.10;;;;;;;23.23;29.91;97442.63;5055339;28;20103;-64
2021/07/15 11:20:26;;;;;;;0.10;0.10;;;;;;;23.41;29.82;97455.22;5054816;28;20032;-64
2021/07/15 11:22:59;;;;;;;0.10;0.10;;;;;;;23.58;29.65;97447.72;5054874;28;20139;-65
2021/07/15 11:25:28;;;;;;;0.03;0.03;;;;;;;23.62;29.89;97431.81;5055181;28;20383;-65
2021/07/15 11:27:57;;;;;;;0.10;0.10;;;;;;;23.59;29.84;97440.94;5054871;28;20036;-63
2021/07/15 11:30:34;;;;;;;0.05;0.05;;;;;;;23.50;30.01;97437.44;5054881;28;20123;-61
2021/07/15 11:33:19;;;;;;;0.10;0.10;;;;;;;23.31;30.13;97444.50;5054892;28;20039;-62
2021/07/15 11:36:14;;;;;;;0.10;0.10;;;;;;;23.17;30.56;97436.47;5055047;28;20494;-62
2021/07/15 11:38:53;;;;;;;0.32;0.20;;;;;;;22.99;30.75;97438.66;5053555;28;20410;-62
2021/07/15 11:41:20;;;;;;;0.10;0.10;;;;;;;23.00;30.64;97437.50;5054817;28;20037;-64
2021/07/15 11:43:48;;;;;;;0.30;0.30;;;;;;;23.03;30.67;97428.41;5054760;28;20033;-62
2021/07/15 11:46:18;;;;;;;0.10;0.10;;;;;;;23.04;30.72;97429.22;5054803;28;20391;-63
2021/07/15 11:48:52;;;;;;;0.52;0.32;;;;;;;23.08;30.85;97430.94;5054877;28;20033;-62
2021/07/15 11:51:30;;;;;;;0.30;0.15;;;;;;;23.11;30.73;97428.66;5053487;28;20036;-62
2021/07/15 11:54:23;;;;;;;0.10;0.10;;;;;;;23.14;30.62;97433.56;5052741;28;20064;-63
2021/07/15 11:57:22;;;;;;;0.10;0.10;;;;;;;23.28;30.58;97434.00;5053851;28;20025;-64
2021/07/15 12:00:07;;;;;;;0.90;0.25;;;;;;;23.40;30.21;97430.38;5054242;28;20118;-65
2021/07/15 12:02:39;;;;;;;0.10;0.10;;;;;;;23.51;30.11;97413.88;5054350;28;20045;-62
2021/07/15 12:09:02;;;;;;;;;;;;;;;23.83;30.00;97419.63;5054233;28;20114;-64
2021/07/15 12:12:07;;;;;;;0.10;0.10;;;;;;;23.88;29.73;97423.00;5053879;28;19954;-61